• Join FlightAware (Why Join?)
  • Login
  • US Flag 
02:03AM EDT


 

Airport Tracker/Info


-or-


 

Live Flight TrackerFlight Track Log ✈ ANA9397 ✈ 10-Oct-2013 ✈ PANC - RJCC / CTS

Flight Track Log - Related Links

Times and Time Zones

All times are in EDT time to prevent confusion due to time zone crossing. See the ANA9397 flight status page for this flight to view local times or setup timezone preferences in your user account.

Time Position Orientation Groundspeed Altitude Reporting Facility
EDT Latitude Longitude Course Direction KTS MPH feet Rate Location/Type
04:58PM 61.1790 -150.0030 343° North 110 127  Level FlightAware
04:59PM 61.1930 -150.0100 346° North 157 181 800 2,520 Climbing FlightAware
04:59PM 61.2080 -150.0210 341° North 167 192 1,800 2,760 Climbing FlightAware
04:59PM 61.2130 -150.0280 326° Northwest 167 192 2,200 2,700 Climbing FlightAware
04:59PM 61.2210 -150.0400 324° Northwest 168 193 2,700 2,640 Climbing FlightAware
05:00PM 61.2240 -150.0470 312° West 171 197 3,000 2,100 Climbing FlightAware
05:00PM 61.2270 -150.0620 293° West 170 196 3,300 1,980 Climbing FlightAware
05:00PM 61.2280 -150.0750 279° West 174 200 3,600 1,080 Climbing FlightAware
05:00PM 61.2300 -150.1110 277° West 212 244 3,800 1,080 Climbing FlightAware
05:00PM 61.2310 -150.1370 275° West 227 261 4,200 2,340 Climbing FlightAware
05:01PM 61.2340 -150.1820 278° West 234 269 5,100 2,880 Climbing FlightAware
05:01PM 61.2350 -150.2170 273° West 230 265 6,000 3,060 Climbing FlightAware
05:01PM 61.2360 -150.2650 273° West 232 267 7,000 3,060 Climbing FlightAware
05:02PM 61.2370 -150.2920 274° West 232 267 7,700 2,460 Climbing FlightAware
05:02PM 61.2380 -150.3460 272° West 248 285 8,500 1,800 Climbing FlightAware
05:02PM 61.2400 -150.3910 275° West 271 312 9,000 2,100 Climbing FlightAware
05:03PM 61.2420 -150.4490 274° West 279 321 9,900 2,520 Climbing FlightAware
05:03PM 61.2450 -150.5430 274° West 291 335 11,400 2,700 Climbing FlightAware
05:04PM 61.2480 -150.6350 274° West 298 343 13,000 3,060 Climbing FlightAware
05:04PM 61.2510 -150.7500 273° West 303 349 15,100 3,060 Climbing FlightAware
05:05PM 61.2540 -150.8540 273° West 310 357 16,800 2,520 Climbing FlightAware
05:06PM 61.2570 -150.9510 274° West 324 373 18,000 2,460 Climbing FlightAware
05:06PM 61.2610 -151.0720 274° West 333 383 19,700 2,640 Climbing FlightAware
05:07PM 61.2630 -151.1750 272° West 338 389 21,100 2,460 Climbing FlightAware
05:07PM 61.2670 -151.2910 274° West 345 397 22,500 2,280 Climbing FlightAware
05:08PM 61.2700 -151.4140 273° West 351 404 23,900 2,220 Climbing FlightAware
05:08PM 61.2720 -151.5220 272° West 356 410 25,100 2,100 Climbing FlightAware
05:09PM 61.2750 -151.6490 273° West 363 418 26,300 1,860 Climbing FlightAware
05:10PM 61.2780 -151.7710 273° West 370 426 27,400 1,800 Climbing FlightAware
05:10PM 61.2810 -151.9040 273° West 376 433 28,500 1,740 Climbing FlightAware
05:11PM 61.2840 -152.0170 273° West 381 438 29,400 1,740 Climbing FlightAware
05:11PM 61.2840 -152.0910 270° West 382 440 30,000 1,800 Climbing FlightAware
05:12PM 61.2850 -152.2900 271° West 383 441 31,700 1,740 Climbing FlightAware
05:13PM 61.2850 -152.4090 270° West 386 444 32,500 1,200 Climbing FlightAware
05:13PM 61.2850 -152.5430 270° West 393 452 33,100 960 Climbing FlightAware
05:14PM 61.2860 -152.6790 271° West 402 463 33,700 1,020 Climbing FlightAware
05:14PM 61.2860 -152.8070 270° West 408 470 34,300 1,020 Climbing FlightAware
05:15PM 61.2860 -152.9280 270° West 413 475 34,800 1,080 Climbing FlightAware
05:15PM 61.2860 -153.0820 270° West 413 475 35,600 1,080 Climbing FlightAware
05:16PM 61.2850 -153.2200 269° West 415 478 36,200 900 Climbing FlightAware
05:17PM 61.2850 -153.3660 270° West 417 480 36,700 600 Climbing FlightAware
05:17PM 61.2840 -153.5130 269° West 424 488 37,000 660 Climbing FlightAware
05:18PM 61.2840 -153.6540 270° West 427 491 37,500 1,020 Climbing FlightAware
05:18PM 61.2830 -153.7860 269° West 422 486 38,200 1,140 Climbing FlightAware
05:19PM 61.2820 -153.9290 269° West 417 480 38,800 900 Climbing FlightAware
05:20PM 61.2810 -154.0730 269° West 414 476 39,300 660 Climbing FlightAware
05:20PM 61.2800 -154.2020 269° West 414 476 39,600 420 Climbing FlightAware
05:21PM 61.2780 -154.3780 269° West 415 478 39,900 300 Climbing FlightAware
05:21PM 61.2760 -154.5040 268° West 416 479 40,000 60 Climbing FlightAware
05:22PM 61.2740 -154.6450 268° West 418 481 40,000  Level FlightAware
05:23PM 61.2720 -154.7910 268° West 418 481 40,000  Level FlightAware
05:23PM 61.2700 -154.9340 268° West 416 479 40,000  Level FlightAware
05:24PM 61.2680 -155.1060 269° West 416 479 40,000  Level FlightAware
05:25PM 61.2660 -155.2280 268° West 416 479 40,000  Level FlightAware
05:25PM 61.2630 -155.3500 267° West 416 479 40,000  Level FlightAware
05:26PM 61.2610 -155.4760 268° West 416 479 40,000  Level FlightAware
05:26PM 61.2590 -155.5990 268° West 416 479 40,000  Level FlightAware
05:27PM 61.2570 -155.7210 268° West 416 479 40,000  Level FlightAware
05:28PM 61.2550 -155.8440 268° West 416 479 40,000  Level FlightAware
05:28PM 61.2530 -155.9660 268° West 416 479 40,000  Level FlightAware
05:29PM 61.2510 -156.0880 268° West 416 479 40,000  Level FlightAware
05:29PM 61.2490 -156.2140 268° West 416 479 40,000  Level FlightAware
05:30PM 61.2470 -156.3300 268° West 416 479 40,000  Level FlightAware
05:31PM 61.2450 -156.4520 268° West 416 479 40,000  Level FlightAware
05:31PM 61.2430 -156.5740 268° West 416 479 40,000  Level FlightAware
05:32PM 61.2410 -156.6970 268° West 416 479 40,000  Level FlightAware
05:32PM 61.2390 -156.8220 268° West 416 479 40,000  Level FlightAware
05:33PM 61.2360 -156.9450 267° West 416 479 40,000  Level FlightAware
05:34PM 61.2500 -157.4667 267° West 410 472 40,000  Level Anchorage Center
05:35PM 61.2500 -157.7000 270° West 410 472 40,000  Level Anchorage Center
05:36PM 61.2333 -157.9500 262° West 410 472 40,000  Level Anchorage Center
05:37PM 61.2333 -158.1333 270° West 410 472 40,000  Level Anchorage Center
05:38PM 61.2333 -158.4333 270° West 410 472 40,000  Level Anchorage Center
05:39PM 61.2333 -158.6667 270° West 420 483 40,000  Level Anchorage Center
05:40PM 61.2333 -158.9167 270° West 410 472 40,000  Level Anchorage Center
05:41PM 61.2333 -159.1500 270° West 420 483 40,000  Level Anchorage Center
05:42PM 61.2333 -159.4000 270° West 420 483 40,000  Level Anchorage Center
05:43PM 61.2167 -159.6333 262° West 420 483 40,000  Level Anchorage Center
05:44PM 61.2167 -159.8833 270° West 420 483 40,000  Level Anchorage Center
05:45PM 61.2167 -160.1333 270° West 420 483 40,000  Level Anchorage Center
05:46PM 61.2000 -160.3667 262° West 410 472 40,000  Level Anchorage Center
05:47PM 61.2000 -160.6167 270° West 410 472 40,000  Level Anchorage Center
05:48PM 61.1833 -160.8500 262° West 410 472 40,000  Level Anchorage Center
05:49PM 61.1833 -161.0833 270° West 410 472 40,000  Level Anchorage Center
05:50PM 61.1667 -161.3167 262° West 400 460 40,000  Level Anchorage Center
05:51PM 61.1667 -161.5500 270° West 410 472 40,000  Level Anchorage Center
05:52PM 61.1500 -161.8000 262° West 410 472 40,000  Level Anchorage Center
05:53PM 61.1500 -162.0333 270° West 400 460 40,000  Level Anchorage Center
05:54PM 61.1333 -162.2667 262° West 410 472 40,000  Level Anchorage Center
05:55PM 61.1333 -162.5167 270° West 420 483 40,000  Level Anchorage Center
05:56PM 61.1167 -162.7500 262° West 410 472 40,000  Level Anchorage Center
05:57PM 61.1000 -162.9833 262° West 420 483 40,000  Level Anchorage Center
05:58PM 61.0833 -163.2167 262° West 400 460 40,000  Level Anchorage Center
05:59PM 61.0500 -163.4500 254° West 430 495 40,000  Level Anchorage Center
06:00PM 61.0167 -163.6833 254° West 420 483 40,000  Level Anchorage Center
06:01PM 60.9833 -163.9167 254° West 420 483 40,000  Level Anchorage Center
06:02PM 60.9500 -164.1500 254° West 420 483 40,000  Level Anchorage Center
06:03PM 60.9000 -164.3833 246° West 420 483 40,000  Level Anchorage Center
06:04PM 60.8667 -164.6167 254° West 420 483 40,000  Level Anchorage Center
06:05PM 60.8333 -164.8500 254° West 420 483 40,000  Level Anchorage Center
06:06PM 60.8000 -165.0833 254° West 410 472 40,000  Level Anchorage Center
06:07PM 60.7667 -165.3167 254° West 420 483 40,000  Level Anchorage Center
06:08PM 60.7333 -165.5000 250° West 420 483 40,000  Level Anchorage Center
06:09PM 60.7000 -165.7167 253° West 420 483 40,000  Level Anchorage Center
06:10PM 60.6667 -165.9500 254° West 410 472 40,000  Level Anchorage Center
06:11PM 60.6167 -166.1667 245° Southwest 420 483 40,000  Level Anchorage Center
06:12PM 60.5833 -166.4000 254° West 420 483 40,000  Level Anchorage Center
06:13PM 60.5500 -166.6333 254° West 420 483 40,000  Level Anchorage Center
06:14PM 60.5167 -166.8167 250° West 420 483 40,000  Level Anchorage Center
06:15PM 60.4667 -167.0333 245° Southwest 420 483 40,000  Level Anchorage Center
06:16PM 60.4333 -167.2667 254° West 430 495 40,000  Level Anchorage Center
06:17PM 60.4000 -167.5000 254° West 420 483 40,000  Level Anchorage Center
06:18PM 60.3500 -167.7167 245° Southwest 420 483 40,000  Level Anchorage Center
06:19PM 60.3167 -167.9500 254° West 430 495 40,000  Level Anchorage Center
06:20PM 60.2833 -168.1667 253° West 420 483 40,000  Level Anchorage Center
06:21PM 60.2333 -168.3833 245° Southwest 410 472 40,000  Level Anchorage Center
06:22PM 60.2000 -168.6000 253° West 410 472 40,000  Level Anchorage Center
06:23PM 60.1500 -168.8167 245° Southwest 410 472 40,000  Level Anchorage Center
06:24PM 60.1167 -169.0500 254° West 420 483 40,000  Level Anchorage Center
06:25PM 60.0667 -169.2667 245° Southwest 420 483 40,000  Level Anchorage Center
06:26PM 60.0333 -169.4667 252° West 410 472 40,000  Level Anchorage Center
06:27PM 59.9833 -169.7000 247° West 420 483 40,000  Level Anchorage Center
06:28PM 59.9333 -169.9167 245° Southwest 410 472 40,000  Level Anchorage Center
06:29PM 59.9000 -170.1333 253° West 410 472 40,000  Level Anchorage Center
06:30PM 59.8500 -170.3500 245° Southwest 420 483 40,000  Level Anchorage Center
06:31PM 59.8167 -170.5667 253° West 410 472 40,000  Level Anchorage Center
06:32PM 59.7667 -170.7833 245° Southwest 420 483 40,000  Level Anchorage Center
06:33PM 59.7167 -171.0000 245° Southwest 410 472 40,000  Level Anchorage Center
06:34PM 59.6833 -171.2167 253° West 420 483 40,000  Level Anchorage Center
06:35PM 59.6333 -171.4167 244° Southwest 410 472 40,000  Level Anchorage Center
06:36PM 59.5833 -171.6333 246° West 410 472 40,000  Level Anchorage Center
06:37PM 59.5500 -171.8500 253° West 420 483 40,000  Level Anchorage Center
06:38PM 59.5000 -172.0500 244° Southwest 410 472 40,000  Level Anchorage Center
06:39PM 59.4500 -172.2667 246° West 420 483 40,000  Level Anchorage Center
06:40PM 59.4167 -172.4833 253° West 420 483 40,000  Level Anchorage Center
06:41PM 59.3667 -172.7000 246° West 420 483 40,000  Level Anchorage Center
06:42PM 59.3167 -172.9167 246° West 410 472 40,000  Level Anchorage Center
06:43PM 59.2833 -173.1333 253° West 430 495 40,000  Level Anchorage Center
06:44PM 59.2333 -173.3333 244° Southwest 420 483 40,000  Level Anchorage Center
06:45PM 59.1833 -173.5500 246° West 420 483 40,000  Level Anchorage Center
06:46PM 59.1333 -173.7667 246° West 420 483 40,000  Level Anchorage Center
06:47PM 59.1000 -173.9667 252° West 420 483 40,000  Level Anchorage Center
06:48PM 59.0500 -174.1833 246° West 420 483 40,000  Level Anchorage Center
06:49PM 59.0000 -174.4000 246° West 420 483 40,000  Level Anchorage Center
06:50PM 58.9667 -174.6000 252° West 410 472 40,000  Level Anchorage Center
06:51PM 58.9167 -174.8000 244° Southwest 410 472 40,000  Level Anchorage Center
06:52PM 58.8667 -175.0167 246° West 420 483 40,000  Level Anchorage Center
06:53PM 58.8167 -175.2333 246° West 420 483 40,000  Level Anchorage Center
06:54PM 58.7667 -175.4333 244° Southwest 420 483 40,000  Level Anchorage Center
06:55PM 58.7167 -175.6333 244° Southwest 420 483 40,000  Level Anchorage Center
06:56PM 58.6667 -175.8500 246° West 420 483 40,000  Level Anchorage Center
06:57PM 58.6333 -176.0500 252° West 410 472 40,000  Level Anchorage Center
06:58PM 58.5833 -176.2500 244° Southwest 420 483 40,000  Level Anchorage Center
06:59PM 58.5333 -176.4667 246° West 420 483 40,000  Level Anchorage Center
07:00PM 58.4833 -176.6667 245° Southwest 430 495 40,000  Level Anchorage Center
07:01PM 58.4333 -176.8833 246° West 420 483 40,000  Level Anchorage Center
07:02PM 58.3833 -177.0833 245° Southwest 420 483 40,000  Level Anchorage Center
07:03PM 58.3333 -177.2833 245° Southwest 420 483 40,000  Level Anchorage Center
07:06PM 58.2491 -177.6184 245° Southwest  Level FlightAware Approximate
07:13PM 57.9034 -178.9425 244° Southwest  Level FlightAware Approximate
07:14PM 57.8529 -179.1296 243° Southwest  Level FlightAware Approximate
07:15PM 57.8021 -179.3161 243° Southwest  Level FlightAware Approximate
07:16PM 57.7510 -179.5022 243° Southwest  Level FlightAware Approximate
07:17PM 57.6997 -179.6877 243° Southwest  Level FlightAware Approximate
07:18PM 57.6481 -179.8726 243° Southwest  Level FlightAware Approximate
07:19PM 57.5963 179.9429 242° Southwest  Level FlightAware Approximate
07:20PM 57.5442 179.7590 242° Southwest  Level FlightAware Approximate
07:21PM 57.4918 179.5756 242° Southwest  Level FlightAware Approximate
07:22PM 57.4391 179.3928 242° Southwest  Level FlightAware Approximate
07:23PM 57.3862 179.2104 242° Southwest  Level FlightAware Approximate
07:24PM 57.3330 179.0286 242° Southwest  Level FlightAware Approximate
07:25PM 57.2796 178.8474 241° Southwest  Level FlightAware Approximate
07:26PM 57.2258 178.6666 241° Southwest  Level FlightAware Approximate
07:27PM 57.1719 178.4864 241° Southwest  Level FlightAware Approximate
07:28PM 57.1177 178.3067 241° Southwest  Level FlightAware Approximate
07:29PM 57.0632 178.1275 241° Southwest  Level FlightAware Approximate
07:30PM 57.0085 177.9489 241° Southwest  Level FlightAware Approximate
07:31PM 56.9535 177.7708 241° Southwest  Level FlightAware Approximate
07:32PM 56.8982 177.5932 240° Southwest  Level FlightAware Approximate
07:33PM 56.8427 177.4161 240° Southwest  Level FlightAware Approximate
07:34PM 56.7870 177.2396 240° Southwest  Level FlightAware Approximate
07:35PM 56.7309 177.0636 240° Southwest  Level FlightAware Approximate
07:36PM 56.6746 176.8882 240° Southwest  Level FlightAware Approximate
07:37PM 56.6181 176.7133 240° Southwest  Level FlightAware Approximate
07:38PM 56.5613 176.5389 239° Southwest  Level FlightAware Approximate
07:39PM 56.5043 176.3651 239° Southwest  Level FlightAware Approximate
07:40PM 56.4470 176.1917 239° Southwest  Level FlightAware Approximate
07:41PM 56.3895 176.0189 239° Southwest  Level FlightAware Approximate
07:42PM 56.3318 175.8466 239° Southwest  Level FlightAware Approximate
07:43PM 56.2738 175.6749 239° Southwest  Level FlightAware Approximate
07:43PM 56.0667 175.0833 238° Southwest 450 518 40,000  Level Anchorage Center
07:44PM 56.2155 175.5036 239° Southwest  Level FlightAware Approximate
07:44PM 56.0167 174.9333 239° Southwest 430 495 40,000  Level Anchorage Center
07:45PM 56.1571 175.3329 238° Southwest  Level FlightAware Approximate
07:45PM 55.9500 174.7500 237° Southwest 420 483 40,000  Level Anchorage Center
07:46PM 56.0984 175.1627 238° Southwest  Level FlightAware Approximate
07:46PM 55.9000 174.5833 242° Southwest 420 483 40,000  Level Anchorage Center
07:47PM 56.0395 174.9930 238° Southwest  Level FlightAware Approximate
07:47PM 55.8333 174.4000 237° Southwest 420 483 40,000  Level Anchorage Center
07:48PM 55.9803 174.8238 238° Southwest  Level FlightAware Approximate
07:48PM 55.7667 174.2167 237° Southwest 420 483 40,000  Level Anchorage Center
07:49PM 55.9209 174.6552 238° Southwest  Level FlightAware Approximate
07:49PM 55.7167 174.0667 239° Southwest 420 483 40,000  Level Anchorage Center
07:50PM 55.6333 173.8667 234° Southwest 420 483 40,000  Level Anchorage Center
07:51PM 55.5833 173.7167 240° Southwest 420 483 40,000  Level Anchorage Center
07:52PM 55.5333 173.5667 240° Southwest 430 495 40,000  Level Anchorage Center
07:53PM 55.4500 173.3833 231° Southwest 420 483 40,000  Level Anchorage Center
07:54PM 55.3833 173.1833 240° Southwest 430 495 40,000  Level Anchorage Center
07:55PM 55.3167 173.0000 237° Southwest 420 483 40,000  Level Anchorage Center
07:56PM 55.2667 172.8500 240° Southwest 420 483 40,000  Level Anchorage Center
07:57PM 55.1833 172.6667 232° Southwest 420 483 40,000  Level Anchorage Center
07:58PM 55.1333 172.5167 240° Southwest 420 483 40,000  Level Anchorage Center
07:59PM 55.0667 172.3333 238° Southwest 410 472 40,000  Level Anchorage Center
08:00PM 55.0000 172.1833 232° Southwest 430 495 40,000  Level Anchorage Center
08:01PM 54.9333 172.0000 238° Southwest 430 495 40,000  Level Anchorage Center
08:02PM 54.8667 171.8500 232° Southwest 430 495 40,000  Level Anchorage Center
08:03PM 54.8000 171.6667 238° Southwest 430 495 40,000  Level Anchorage Center
08:04PM 54.7167 171.4833 232° Southwest 430 495 40,000  Level Anchorage Center
08:05PM 54.6500 171.3333 233° Southwest 430 495 40,000  Level Anchorage Center
08:06PM 54.5833 171.1667 235° Southwest 420 483 40,000  Level Anchorage Center
08:07PM 54.5167 171.0167 233° Southwest 430 495 40,000  Level Anchorage Center
08:08PM 54.4500 170.8333 238° Southwest 430 495 40,000  Level Anchorage Center
08:09PM 54.3833 170.6833 233° Southwest 420 483 40,000  Level Anchorage Center
08:10PM 54.3167 170.5167 236° Southwest 420 483 40,000  Level Anchorage Center
08:11PM 54.2333 170.3333 232° Southwest 450 518 40,000  Level Anchorage Center
08:12PM 54.1667 170.2000 230° Southwest 420 483 40,000  Level Anchorage Center
08:13PM 54.1000 170.0167 238° Southwest 440 506 40,000  Level Anchorage Center
08:14PM 54.0333 169.8833 230° Southwest 430 495 40,000  Level Anchorage Center
08:15PM 53.9500 169.7167 230° Southwest 420 483 40,000  Level Anchorage Center
08:16PM 53.9000 169.5667 241° Southwest 410 472 40,000  Level Anchorage Center
08:17PM 53.8167 169.4000 230° Southwest 430 495 40,000  Level Anchorage Center
08:18PM 53.7500 169.2333 236° Southwest 410 472 40,000  Level Anchorage Center
08:19PM 53.7000 169.1000 238° Southwest 420 483 40,000  Level Anchorage Center
08:20PM 53.6333 168.9000 241° Southwest 420 483 40,000  Level Anchorage Center
08:21PM 53.5833 168.7667 238° Southwest 420 483 40,000  Level Anchorage Center
08:22PM 53.5167 168.5833 239° Southwest 420 483 40,000  Level Anchorage Center
08:23PM 53.4667 168.4333 241° Southwest 420 483 40,000  Level Anchorage Center
08:25PM 53.3897 168.2036 240° Southwest  Level FlightAware Approximate
08:32PM 52.9893 167.0760 240° Southwest  Level FlightAware Approximate
08:33PM 52.9312 166.9167 239° Southwest  Level FlightAware Approximate
08:34PM 52.8730 166.7577 239° Southwest  Level FlightAware Approximate
08:35PM 52.8145 166.5992 239° Southwest  Level FlightAware Approximate
08:36PM 52.7558 166.4411 239° Southwest  Level FlightAware Approximate
08:37PM 52.6968 166.2834 238° Southwest  Level FlightAware Approximate
08:38PM 52.6377 166.1262 238° Southwest  Level FlightAware Approximate
08:39PM 52.5784 165.9694 238° Southwest  Level FlightAware Approximate
08:40PM 52.5189 165.8130 238° Southwest  Level FlightAware Approximate
08:41PM 52.4591 165.6570 238° Southwest  Level FlightAware Approximate
08:42PM 52.3992 165.5015 238° Southwest  Level FlightAware Approximate
08:43PM 52.3390 165.3463 238° Southwest  Level FlightAware Approximate
08:44PM 52.2787 165.1917 238° Southwest  Level FlightAware Approximate
08:45PM 52.2181 165.0374 237° Southwest  Level FlightAware Approximate
08:46PM 52.1574 164.8835 237° Southwest  Level FlightAware Approximate
08:47PM 52.0964 164.7301 237° Southwest  Level FlightAware Approximate
08:48PM 52.0353 164.5771 237° Southwest  Level FlightAware Approximate
08:49PM 51.9739 164.4245 237° Southwest  Level FlightAware Approximate
08:50PM 51.9124 164.2723 237° Southwest  Level FlightAware Approximate
08:51PM 51.8507 164.1205 237° Southwest  Level FlightAware Approximate
08:52PM 51.7887 163.9692 237° Southwest  Level FlightAware Approximate
08:53PM 51.7266 163.8182 236° Southwest  Level FlightAware Approximate
08:54PM 51.6643 163.6677 236° Southwest  Level FlightAware Approximate
08:55PM 51.6017 163.5177 236° Southwest  Level FlightAware Approximate
08:56PM 51.5390 163.3681 236° Southwest  Level FlightAware Approximate
08:57PM 51.4760 163.2189 236° Southwest  Level FlightAware Approximate
08:58PM 51.4128 163.0701 236° Southwest  Level FlightAware Approximate
08:59PM 51.3495 162.9218 236° Southwest  Level FlightAware Approximate
09:00PM 51.2859 162.7738 236° Southwest  Level FlightAware Approximate
09:01PM 51.2222 162.6263 235° Southwest  Level FlightAware Approximate
09:02PM 51.1583 162.4791 235° Southwest  Level FlightAware Approximate
09:03PM 51.0942 162.3324 235° Southwest  Level FlightAware Approximate
09:04PM 51.0299 162.1861 235° Southwest  Level FlightAware Approximate
09:05PM 50.9655 162.0401 235° Southwest  Level FlightAware Approximate
09:06PM 50.9009 161.8946 235° Southwest  Level FlightAware Approximate
09:07PM 50.8360 161.7495 235° Southwest  Level FlightAware Approximate
09:08PM 50.7710 161.6048 235° Southwest  Level FlightAware Approximate
09:09PM 50.7059 161.4605 235° Southwest  Level FlightAware Approximate
09:10PM 50.6405 161.3166 234° Southwest  Level FlightAware Approximate
09:11PM 50.5750 161.1731 234° Southwest  Level FlightAware Approximate
09:12PM 50.5093 161.0300 234° Southwest  Level FlightAware Approximate
09:13PM 50.4434 160.8873 234° Southwest  Level FlightAware Approximate
09:14PM 50.3774 160.7450 234° Southwest  Level FlightAware Approximate
09:15PM 50.3111 160.6031 234° Southwest  Level FlightAware Approximate
09:16PM 50.2447 160.4616 234° Southwest  Level FlightAware Approximate
09:17PM 50.1783 160.3203 234° Southwest  Level FlightAware Approximate
09:18PM 50.1121 160.1789 234° Southwest  Level FlightAware Approximate
09:19PM 50.0457 160.0379 234° Southwest  Level FlightAware Approximate
09:20PM 49.9792 159.8974 234° Southwest  Level FlightAware Approximate
09:21PM 49.9125 159.7572 234° Southwest  Level FlightAware Approximate
09:22PM 49.8456 159.6174 233° Southwest  Level FlightAware Approximate
09:23PM 49.7786 159.4780 233° Southwest  Level FlightAware Approximate
09:24PM 49.7078 159.3500 180° South  Level FlightAware Approximate
09:25PM 49.6435 159.2180 233° Southwest  Level FlightAware Approximate
09:26PM 49.5756 159.0801 233° Southwest  Level FlightAware Approximate
09:27PM 49.5076 158.9427 233° Southwest  Level FlightAware Approximate
09:28PM 49.4394 158.8056 233° Southwest  Level FlightAware Approximate
09:29PM 49.3710 158.6688 233° Southwest  Level FlightAware Approximate
09:30PM 49.3025 158.5325 232° Southwest  Level FlightAware Approximate
09:31PM 49.2338 158.3966 232° Southwest  Level FlightAware Approximate
09:32PM 49.1649 158.2610 232° Southwest  Level FlightAware Approximate
09:33PM 49.0959 158.1258 232° Southwest  Level FlightAware Approximate
09:34PM 49.0268 157.9910 232° Southwest  Level FlightAware Approximate
09:35PM 48.9574 157.8565 232° Southwest  Level FlightAware Approximate
09:36PM 48.8880 157.7224 232° Southwest  Level FlightAware Approximate
09:37PM 48.8183 157.5887 232° Southwest  Level FlightAware Approximate
09:38PM 48.7486 157.4554 232° Southwest  Level FlightAware Approximate
09:39PM 48.6786 157.3224 231° Southwest  Level FlightAware Approximate
09:40PM 48.6085 157.1898 231° Southwest  Level FlightAware Approximate
09:41PM 48.5383 157.0576 231° Southwest  Level FlightAware Approximate
09:42PM 48.4679 156.9258 231° Southwest  Level FlightAware Approximate
09:43PM 48.3974 156.7943 231° Southwest  Level FlightAware Approximate
09:44PM 48.3267 156.6631 231° Southwest  Level FlightAware Approximate
09:45PM 48.2558 156.5324 231° Southwest  Level FlightAware Approximate
09:46PM 48.1848 156.4020 231° Southwest  Level FlightAware Approximate
09:47PM 48.1137 156.2719 231° Southwest  Level FlightAware Approximate
09:48PM 48.0424 156.1423 231° Southwest  Level FlightAware Approximate
09:49PM 47.9710 156.0129 231° Southwest  Level FlightAware Approximate
09:50PM 47.8994 155.8840 230° Southwest  Level FlightAware Approximate
09:51PM 47.8277 155.7554 230° Southwest  Level FlightAware Approximate
09:52PM 47.7559 155.6271 230° Southwest  Level FlightAware Approximate
09:53PM 47.6841 155.4989 230° Southwest  Level FlightAware Approximate
09:54PM 47.6122 155.3710 230° Southwest  Level FlightAware Approximate
09:55PM 47.5402 155.2435 230° Southwest  Level FlightAware Approximate
09:56PM 47.4681 155.1163 230° Southwest  Level FlightAware Approximate
09:57PM 47.3958 154.9894 230° Southwest  Level FlightAware Approximate
09:58PM 47.3234 154.8629 230° Southwest  Level FlightAware Approximate
09:59PM 47.2508 154.7368 230° Southwest  Level FlightAware Approximate
10:00PM 47.1781 154.6110 230° Southwest  Level FlightAware Approximate
10:01PM 47.1052 154.4855 230° Southwest  Level FlightAware Approximate
10:02PM 47.0323 154.3604 229° Southwest  Level FlightAware Approximate
10:03PM 46.9591 154.2357 229° Southwest  Level FlightAware Approximate
10:04PM 46.8859 154.1112 229° Southwest  Level FlightAware Approximate
10:05PM 46.8125 153.9871 229° Southwest  Level FlightAware Approximate
10:06PM 46.7390 153.8634 229° Southwest  Level FlightAware Approximate
10:07PM 46.6653 153.7400 229° Southwest  Level FlightAware Approximate
10:08PM 46.5915 153.6169 229° Southwest  Level FlightAware Approximate
10:09PM 46.5176 153.4942 229° Southwest  Level FlightAware Approximate
10:10PM 46.4436 153.3717 229° Southwest  Level FlightAware Approximate
10:11PM 46.3694 153.2497 229° Southwest  Level FlightAware Approximate
10:12PM 46.2951 153.1279 229° Southwest  Level FlightAware Approximate
10:13PM 46.2207 153.0065 228° Southwest  Level FlightAware Approximate
10:14PM 46.1454 152.8864 228° Southwest  Level FlightAware Approximate
10:15PM 46.0699 152.7667 228° Southwest  Level FlightAware Approximate
10:16PM 45.9943 152.6472 228° Southwest  Level FlightAware Approximate
10:17PM 45.9186 152.5282 228° Southwest  Level FlightAware Approximate
10:18PM 45.8428 152.4094 228° Southwest  Level FlightAware Approximate
10:19PM 45.7668 152.2910 227° Southwest  Level FlightAware Approximate
10:20PM 45.6907 152.1728 227° Southwest  Level FlightAware Approximate
10:21PM 45.6145 152.0550 227° Southwest  Level FlightAware Approximate
10:22PM 45.5382 151.9375 227° Southwest  Level FlightAware Approximate
10:23PM 45.4617 151.8204 227° Southwest  Level FlightAware Approximate
10:24PM 45.3851 151.7036 227° Southwest  Level FlightAware Approximate
10:25PM 45.3084 151.5870 227° Southwest  Level FlightAware Approximate
10:26PM 45.2316 151.4708 227° Southwest  Level FlightAware Approximate
10:27PM 45.1547 151.3549 227° Southwest  Level FlightAware Approximate
10:28PM 45.0777 151.2393 227° Southwest  Level FlightAware Approximate
10:29PM 45.0005 151.1241 227° Southwest  Level FlightAware Approximate
10:30PM 44.9232 151.0091 227° Southwest  Level FlightAware Approximate
10:31PM 44.8459 150.8945 226° Southwest  Level FlightAware Approximate
10:32PM 44.7683 150.7801 226° Southwest  Level FlightAware Approximate
10:33PM 44.6907 150.6661 226° Southwest  Level FlightAware Approximate
10:34PM 44.6130 150.5523 226° Southwest  Level FlightAware Approximate
10:35PM 44.5353 150.4387 226° Southwest  Level FlightAware Approximate
10:36PM 44.4575 150.3254 226° Southwest  Level FlightAware Approximate
10:37PM 44.3797 150.2123 226° Southwest  Level FlightAware Approximate
10:38PM 44.3016 150.0996 226° Southwest  Level FlightAware Approximate
10:39PM 44.2235 149.9871 226° Southwest  Level FlightAware Approximate
10:40PM 44.1453 149.8749 226° Southwest  Level FlightAware Approximate
10:41PM 44.0670 149.7631 226° Southwest  Level FlightAware Approximate
10:42PM 43.9885 149.6515 226° Southwest  Level FlightAware Approximate
10:43PM 43.9100 149.5403 226° Southwest  Level FlightAware Approximate
10:44PM 43.8313 149.4293 226° Southwest  Level FlightAware Approximate
10:45PM 43.7525 149.3186 225° Southwest  Level FlightAware Approximate
10:46PM 43.6737 149.2082 225° Southwest  Level FlightAware Approximate
10:47PM 43.5947 149.0981 225° Southwest  Level FlightAware Approximate
10:48PM 43.5156 148.9883 225° Southwest  Level FlightAware Approximate
10:49PM 43.4363 148.8789 225° Southwest  Level FlightAware Approximate
10:50PM 43.3569 148.7698 225° Southwest  Level FlightAware Approximate
10:51PM 43.2774 148.6611 225° Southwest  Level FlightAware Approximate
10:52PM 43.1977 148.5526 225° Southwest  Level FlightAware Approximate
10:53PM 43.1180 148.4444 225° Southwest  Level FlightAware Approximate
10:54PM 43.0382 148.3365 225° Southwest  Level FlightAware Approximate
10:55PM 42.9582 148.2288 225° Southwest  Level FlightAware Approximate
10:56PM 42.8782 148.1214 225° Southwest  Level FlightAware Approximate
10:57PM 42.7980 148.0144 224° Southwest  Level FlightAware Approximate
10:58PM 42.7178 147.9075 224° Southwest  Level FlightAware Approximate
10:59PM 42.6375 147.8010 224° Southwest  Level FlightAware Approximate
11:00PM 42.5570 147.6948 224° Southwest  Level FlightAware Approximate
11:01PM 42.4765 147.5888 224° Southwest  Level FlightAware Approximate
11:02PM 42.3959 147.4831 224° Southwest  Level FlightAware Approximate
11:03PM 42.3158 147.3767 225° Southwest  Level FlightAware Approximate
11:04PM 42.2359 147.2703 225° Southwest  Level FlightAware Approximate
11:05PM 42.1558 147.1643 224° Southwest  Level FlightAware Approximate
11:06PM 42.0756 147.0585 224° Southwest  Level FlightAware Approximate
11:07PM 41.9953 146.9530 224° Southwest  Level FlightAware Approximate
11:08PM 41.9174 146.8469 288° West  Level FlightAware Approximate
11:09PM 41.9520 146.7034 288° West  Level FlightAware Approximate
11:10PM 41.9864 146.5598 288° West  Level FlightAware Approximate
11:11PM 42.0206 146.4160 288° West  Level FlightAware Approximate
11:12PM 42.0546 146.2720 288° West  Level FlightAware Approximate
11:13PM 42.0884 146.1279 288° West  Level FlightAware Approximate
11:14PM 42.1221 145.9836 288° West  Level FlightAware Approximate
11:15PM 42.1555 145.8392 287° West  Level FlightAware Approximate
11:16PM 42.1888 145.6947 287° West  Level FlightAware Approximate
11:17PM 42.2220 145.5499 287° West  Level FlightAware Approximate
11:18PM 42.2495 145.4031 283° West  Level FlightAware Approximate
11:19PM 42.2819 145.2580 287° West  Level FlightAware Approximate
11:20PM 42.3143 145.1128 287° West  Level FlightAware Approximate
11:21PM 42.3465 144.9674 287° West  Level FlightAware Approximate
11:22PM 42.3785 144.8219 287° West  Level FlightAware Approximate
11:23PM 42.4183 144.6814 286° West  Level FlightAware Approximate
11:24PM 42.4495 144.5353 286° West  Level FlightAware Approximate
11:25PM 42.4804 144.3891 286° West  Level FlightAware Approximate
11:26PM 42.5112 144.2428 286° West  Level FlightAware Approximate
11:27PM 42.5391 144.0955 290° West  Level FlightAware Approximate
11:28PM 42.5781 143.9527 290° West  Level FlightAware Approximate
11:29PM 42.6048 143.8048 283° West  Level FlightAware Approximate
11:30PM 42.6336 143.6576 287° West  Level FlightAware Approximate
11:31PM 42.6660 143.5116 287° West  Level FlightAware Approximate
11:32PM 42.6970 143.3649 285° West  Level FlightAware Approximate
11:33PM 42.7325 143.2200 289° West  Level FlightAware Approximate
11:34PM 42.7291 143.0676 268° West  Level FlightAware Approximate
11:35PM 42.7245 142.9150 268° West  Level FlightAware Approximate
11:36PM 42.7198 142.7624 268° West  Level FlightAware Approximate
11:37PM 42.7167 142.6098 270° West  Level FlightAware Approximate
11:38PM 42.7167 142.4571 270° West  Level FlightAware Approximate
11:39PM 42.7096 142.3048 266° West  Level FlightAware Approximate
11:40PM 42.7011 142.1525 266° West  Level FlightAware Approximate
11:41PM 42.7001 141.9999 270° West  Level FlightAware Approximate
11:42PM 42.7000 141.8472 270° West  Level FlightAware Approximate
11:43PM 42.7000 141.6946 270° West  Level FlightAware Approximate
11:44PM 42.7667 141.6833 North  Level FlightAware Approximate
11:45PM 42.7752 141.6923 North  Level Estimated
11:46PM 42.7752 141.6923 North  Level Estimated
11:47PM 42.7752 141.6923 North  Level Estimated
11:48PM 42.7752 141.6923 North  Level Estimated
11:49PM 42.7752 141.6923 North  Level Estimated
11:50PM 42.7752 141.6923 North  Level Estimated
11:51PM 42.7752 141.6923 North  Level Estimated
11:52PM 42.7752 141.6923 North  Level Estimated
11:53PM 42.7752 141.6923 North  Level Estimated
11:54PM 42.7752 141.6923 North  Level Estimated
11:55PM 42.7752 141.6923 North  Level Estimated
11:56PM 42.7752 141.6923 North  Level Estimated
11:57PM 42.7752 141.6923 North  Level Estimated
11:58PM 42.7752 141.6923 North  Level Estimated
11:59PM 42.7752 141.6923 North  Level Estimated
12:00AM 42.7752 141.6923 North  Level Estimated
12:01AM 42.7752 141.6923 North  Level Estimated
12:02AM 42.7752 141.6923 North  Level Estimated
12:03AM 42.7752 141.6923 North  Level Estimated